sensor_id;sensor_type;location;lat;lon;timestamp;temperature;humidity
33994;DHT22;20673;48.980;8.138;2022-12-16T00:02:19;-1.60;99.90
33994;DHT22;20673;48.980;8.138;2022-12-16T00:04:45;-1.60;99.90
33994;DHT22;20673;48.980;8.138;2022-12-16T00:07:11;-1.60;99.90
33994;DHT22;20673;48.980;8.138;2022-12-16T00:09:37;-1.60;99.90
33994;DHT22;20673;48.980;8.138;2022-12-16T00:12:04;-1.60;99.90
33994;DHT22;20673;48.980;8.138;2022-12-16T00:14:30;-1.60;99.90
33994;DHT22;20673;48.980;8.138;2022-12-16T00:16:56;-1.60;99.90
33994;DHT22;20673;48.980;8.138;2022-12-16T00:19:22;-1.60;99.90
33994;DHT22;20673;48.980;8.138;2022-12-16T00:21:49;-1.60;99.90
33994;DHT22;20673;48.980;8.138;2022-12-16T00:24:15;-1.60;99.90
33994;DHT22;20673;48.980;8.138;2022-12-16T00:26:41;-1.60;99.90
33994;DHT22;20673;48.980;8.138;2022-12-16T00:29:07;-1.60;99.90
33994;DHT22;20673;48.980;8.138;2022-12-16T00:31:34;-1.50;99.90
33994;DHT22;20673;48.980;8.138;2022-12-16T00:34:00;-1.50;99.90
33994;DHT22;20673;48.980;8.138;2022-12-16T00:36:26;-1.60;99.90
33994;DHT22;20673;48.980;8.138;2022-12-16T00:38:53;-1.60;99.90
33994;DHT22;20673;48.980;8.138;2022-12-16T00:41:19;-1.60;99.90
33994;DHT22;20673;48.980;8.138;2022-12-16T00:43:45;-1.60;99.90
33994;DHT22;20673;48.980;8.138;2022-12-16T00:46:11;-1.60;99.90
33994;DHT22;20673;48.980;8.138;2022-12-16T00:48:38;-1.60;99.90
33994;DHT22;20673;48.980;8.138;2022-12-16T00:51:04;-1.60;99.90
33994;DHT22;20673;48.980;8.138;2022-12-16T00:53:30;-1.60;99.90
33994;DHT22;20673;48.980;8.138;2022-12-16T00:56:11;-1.70;99.90
33994;DHT22;20673;48.980;8.138;2022-12-16T00:58:35;-1.70;99.90
33994;DHT22;20673;48.980;8.138;2022-12-16T01:01:03;-1.70;99.90
33994;DHT22;20673;48.980;8.138;2022-12-16T01:03:29;-1.70;99.90
33994;DHT22;20673;48.980;8.138;2022-12-16T01:05:55;-1.70;99.90
33994;DHT22;20673;48.980;8.138;2022-12-16T01:08:21;-1.70;99.90
33994;DHT22;20673;48.980;8.138;2022-12-16T01:10:51;-1.70;99.90
33994;DHT22;20673;48.980;8.138;2022-12-16T01:13:18;-1.70;99.90
33994;DHT22;20673;48.980;8.138;2022-12-16T01:15:45;-1.70;99.90
33994;DHT22;20673;48.980;8.138;2022-12-16T01:18:11;-1.70;99.90
33994;DHT22;20673;48.980;8.138;2022-12-16T01:20:37;-1.70;99.90
33994;DHT22;20673;48.980;8.138;2022-12-16T01:23:03;-1.70;99.90
33994;DHT22;20673;48.980;8.138;2022-12-16T01:25:29;-1.70;99.90
33994;DHT22;20673;48.980;8.138;2022-12-16T01:27:56;-1.70;99.90
33994;DHT22;20673;48.980;8.138;2022-12-16T01:30:22;-1.70;99.90
33994;DHT22;20673;48.980;8.138;2022-12-16T01:32:48;-1.70;99.90
33994;DHT22;20673;48.980;8.138;2022-12-16T01:35:15;-1.70;99.90
33994;DHT22;20673;48.980;8.138;2022-12-16T01:37:41;-1.70;99.90
33994;DHT22;20673;48.980;8.138;2022-12-16T01:40:10;-1.70;99.90
33994;DHT22;20673;48.980;8.138;2022-12-16T01:42:43;-1.70;99.90
33994;DHT22;20673;48.980;8.138;2022-12-16T01:45:28;-1.70;99.90
33994;DHT22;20673;48.980;8.138;2022-12-16T01:47:51;-1.80;99.90
33994;DHT22;20673;48.980;8.138;2022-12-16T01:50:20;-1.70;99.90
33994;DHT22;20673;48.980;8.138;2022-12-16T01:52:48;-1.70;99.90
33994;DHT22;20673;48.980;8.138;2022-12-16T01:55:17;-1.80;99.90
33994;DHT22;20673;48.980;8.138;2022-12-16T01:57:47;-1.80;99.90
33994;DHT22;20673;48.980;8.138;2022-12-16T02:00:15;-1.80;99.90
33994;DHT22;20673;48.980;8.138;2022-12-16T02:02:42;-1.80;99.90
33994;DHT22;20673;48.980;8.138;2022-12-16T02:05:11;-1.80;99.90
33994;DHT22;20673;48.980;8.138;2022-12-16T02:07:55;-1.80;99.90
33994;DHT22;20673;48.980;8.138;2022-12-16T02:10:34;-1.80;99.90
33994;DHT22;20673;48.980;8.138;2022-12-16T02:13:09;-1.80;99.90
33994;DHT22;20673;48.980;8.138;2022-12-16T02:27:12;-1.80;99.90
33994;DHT22;20673;48.980;8.138;2022-12-16T02:32:58;-1.80;99.90
33994;DHT22;20673;48.980;8.138;2022-12-16T02:35:41;-1.80;99.90
33994;DHT22;20673;48.980;8.138;2022-12-16T02:40:54;-1.80;99.90
33994;DHT22;20673;48.980;8.138;2022-12-16T02:46:19;-1.80;99.90
33994;DHT22;20673;48.980;8.138;2022-12-16T02:48:48;-1.80;99.90
33994;DHT22;20673;48.980;8.138;2022-12-16T02:51:14;-1.80;99.90
33994;DHT22;20673;48.980;8.138;2022-12-16T02:53:40;-1.80;99.90
33994;DHT22;20673;48.980;8.138;2022-12-16T03:04:11;-1.90;99.90
33994;DHT22;20673;48.980;8.138;2022-12-16T03:06:41;-1.90;99.90
33994;DHT22;20673;48.980;8.138;2022-12-16T03:09:10;-1.90;99.90
33994;DHT22;20673;48.980;8.138;2022-12-16T03:11:39;-1.90;99.90
33994;DHT22;20673;48.980;8.138;2022-12-16T03:14:07;-1.90;99.90
33994;DHT22;20673;48.980;8.138;2022-12-16T03:16:37;-1.90;99.90
33994;DHT22;20673;48.980;8.138;2022-12-16T03:19:04;-1.90;99.90
33994;DHT22;20673;48.980;8.138;2022-12-16T03:21:33;-2.00;99.90
33994;DHT22;20673;48.980;8.138;2022-12-16T03:24:08;-2.00;99.90
33994;DHT22;20673;48.980;8.138;2022-12-16T03:29:49;-2.00;99.90
33994;DHT22;20673;48.980;8.138;2022-12-16T03:32:21;-2.00;99.90
33994;DHT22;20673;48.980;8.138;2022-12-16T03:37:38;-2.10;99.90
33994;DHT22;20673;48.980;8.138;2022-12-16T03:40:07;-2.10;99.90
33994;DHT22;20673;48.980;8.138;2022-12-16T03:42:36;-2.10;99.90
33994;DHT22;20673;48.980;8.138;2022-12-16T03:45:04;-2.10;99.90
33994;DHT22;20673;48.980;8.138;2022-12-16T03:47:32;-2.10;99.90
33994;DHT22;20673;48.980;8.138;2022-12-16T03:49:58;-2.20;99.90
33994;DHT22;20673;48.980;8.138;2022-12-16T03:52:25;-2.20;99.90
33994;DHT22;20673;48.980;8.138;2022-12-16T03:54:50;-2.20;99.90
33994;DHT22;20673;48.980;8.138;2022-12-16T03:57:16;-2.30;99.90
33994;DHT22;20673;48.980;8.138;2022-12-16T03:59:42;-2.30;99.90
33994;DHT22;20673;48.980;8.138;2022-12-16T04:02:08;-2.40;99.90
33994;DHT22;20673;48.980;8.138;2022-12-16T04:04:34;-2.40;99.90
33994;DHT22;20673;48.980;8.138;2022-12-16T04:07:00;-2.40;99.90
33994;DHT22;20673;48.980;8.138;2022-12-16T04:09:44;-2.40;99.90
33994;DHT22;20673;48.980;8.138;2022-12-16T04:12:10;-2.40;99.90
33994;DHT22;20673;48.980;8.138;2022-12-16T04:14:54;-2.50;99.90
33994;DHT22;20673;48.980;8.138;2022-12-16T04:17:39;-2.60;99.90
33994;DHT22;20673;48.980;8.138;2022-12-16T04:20:29;-2.60;99.90
33994;DHT22;20673;48.980;8.138;2022-12-16T04:23:11;-2.60;99.90
33994;DHT22;20673;48.980;8.138;2022-12-16T04:25:56;-2.70;99.90
33994;DHT22;20673;48.980;8.138;2022-12-16T04:28:22;-2.70;99.90
33994;DHT22;20673;48.980;8.138;2022-12-16T04:30:48;-2.70;99.90
33994;DHT22;20673;48.980;8.138;2022-12-16T04:33:14;-2.70;99.90
33994;DHT22;20673;48.980;8.138;2022-12-16T04:35:59;-2.80;99.90
33994;DHT22;20673;48.980;8.138;2022-12-16T04:38:43;-2.80;99.90
33994;DHT22;20673;48.980;8.138;2022-12-16T04:41:28;-2.90;99.90
33994;DHT22;20673;48.980;8.138;2022-12-16T04:44:12;-2.90;99.90
33994;DHT22;20673;48.980;8.138;2022-12-16T04:46:57;-2.90;99.90
33994;DHT22;20673;48.980;8.138;2022-12-16T04:49:41;-3.00;99.90
33994;DHT22;20673;48.980;8.138;2022-12-16T04:52:25;-3.00;99.90
33994;DHT22;20673;48.980;8.138;2022-12-16T04:55:10;-3.00;99.90
33994;DHT22;20673;48.980;8.138;2022-12-16T04:57:59;-3.00;99.90
33994;DHT22;20673;48.980;8.138;2022-12-16T05:00:43;-3.00;99.90
33994;DHT22;20673;48.980;8.138;2022-12-16T05:03:28;-3.10;99.90
33994;DHT22;20673;48.980;8.138;2022-12-16T05:06:13;-3.10;99.90
33994;DHT22;20673;48.980;8.138;2022-12-16T05:08:57;-3.10;99.90
33994;DHT22;20673;48.980;8.138;2022-12-16T05:11:42;-3.10;99.90
33994;DHT22;20673;48.980;8.138;2022-12-16T05:14:26;-3.20;99.90
33994;DHT22;20673;48.980;8.138;2022-12-16T05:17:11;-3.20;99.90
33994;DHT22;20673;48.980;8.138;2022-12-16T05:19:55;-3.30;99.90
33994;DHT22;20673;48.980;8.138;2022-12-16T05:22:40;-3.30;99.90
33994;DHT22;20673;48.980;8.138;2022-12-16T05:25:27;-3.30;99.90
33994;DHT22;20673;48.980;8.138;2022-12-16T05:28:12;-3.30;99.90
33994;DHT22;20673;48.980;8.138;2022-12-16T05:30:56;-3.40;99.90
33994;DHT22;20673;48.980;8.138;2022-12-16T05:33:41;-3.30;99.90
33994;DHT22;20673;48.980;8.138;2022-12-16T05:36:26;-3.40;99.90
33994;DHT22;20673;48.980;8.138;2022-12-16T05:39:09;-3.40;99.90
33994;DHT22;20673;48.980;8.138;2022-12-16T05:41:54;-3.50;99.90
33994;DHT22;20673;48.980;8.138;2022-12-16T05:44:38;-3.50;99.90
33994;DHT22;20673;48.980;8.138;2022-12-16T05:47:23;-3.60;99.90
33994;DHT22;20673;48.980;8.138;2022-12-16T05:50:08;-3.60;99.90
33994;DHT22;20673;48.980;8.138;2022-12-16T05:52:52;-3.70;99.90
33994;DHT22;20673;48.980;8.138;2022-12-16T05:55:38;-3.80;99.90
33994;DHT22;20673;48.980;8.138;2022-12-16T05:58:23;-3.90;99.90
33994;DHT22;20673;48.980;8.138;2022-12-16T06:01:08;-3.90;99.90
33994;DHT22;20673;48.980;8.138;2022-12-16T06:03:52;-4.00;99.90
33994;DHT22;20673;48.980;8.138;2022-12-16T06:06:36;-4.10;99.90
33994;DHT22;20673;48.980;8.138;2022-12-16T06:09:20;-4.20;99.90
33994;DHT22;20673;48.980;8.138;2022-12-16T06:12:05;-4.30;99.90
33994;DHT22;20673;48.980;8.138;2022-12-16T06:14:49;-4.30;99.90
33994;DHT22;20673;48.980;8.138;2022-12-16T06:17:34;-4.40;99.90
33994;DHT22;20673;48.980;8.138;2022-12-16T06:20:18;-4.50;99.90
33994;DHT22;20673;48.980;8.138;2022-12-16T06:23:03;-4.60;99.90
33994;DHT22;20673;48.980;8.138;2022-12-16T06:25:47;-4.60;99.90
33994;DHT22;20673;48.980;8.138;2022-12-16T06:28:31;-4.70;99.90
33994;DHT22;20673;48.980;8.138;2022-12-16T06:31:16;-4.80;99.90
33994;DHT22;20673;48.980;8.138;2022-12-16T06:34:00;-4.90;99.90
33994;DHT22;20673;48.980;8.138;2022-12-16T06:36:37;-4.90;99.90
33994;DHT22;20673;48.980;8.138;2022-12-16T06:39:22;-5.00;99.90
33994;DHT22;20673;48.980;8.138;2022-12-16T06:42:06;-5.10;99.90
33994;DHT22;20673;48.980;8.138;2022-12-16T06:44:50;-5.10;99.90
33994;DHT22;20673;48.980;8.138;2022-12-16T06:47:35;-5.20;99.90
33994;DHT22;20673;48.980;8.138;2022-12-16T06:50:22;-5.20;99.90
33994;DHT22;20673;48.980;8.138;2022-12-16T06:53:06;-5.30;99.90
33994;DHT22;20673;48.980;8.138;2022-12-16T06:55:51;-5.40;99.90
33994;DHT22;20673;48.980;8.138;2022-12-16T06:58:35;-5.40;99.90
33994;DHT22;20673;48.980;8.138;2022-12-16T07:01:19;-5.50;99.90
33994;DHT22;20673;48.980;8.138;2022-12-16T07:04:03;-5.50;99.90
33994;DHT22;20673;48.980;8.138;2022-12-16T07:06:48;-5.60;99.90
33994;DHT22;20673;48.980;8.138;2022-12-16T07:09:32;-5.60;99.90
33994;DHT22;20673;48.980;8.138;2022-12-16T07:12:16;-5.60;99.90
33994;DHT22;20673;48.980;8.138;2022-12-16T07:15:00;-5.60;99.90
33994;DHT22;20673;48.980;8.138;2022-12-16T07:17:44;-5.70;99.90
33994;DHT22;20673;48.980;8.138;2022-12-16T07:20:28;-5.70;99.90
33994;DHT22;20673;48.980;8.138;2022-12-16T07:23:11;-5.70;99.90
33994;DHT22;20673;48.980;8.138;2022-12-16T07:25:56;-5.80;99.90
33994;DHT22;20673;48.980;8.138;2022-12-16T07:28:40;-5.90;99.90
33994;DHT22;20673;48.980;8.138;2022-12-16T07:31:24;-5.90;99.90
33994;DHT22;20673;48.980;8.138;2022-12-16T07:34:08;-5.90;99.90
33994;DHT22;20673;48.980;8.138;2022-12-16T07:36:52;-6.00;99.90
33994;DHT22;20673;48.980;8.138;2022-12-16T07:39:36;-6.00;99.90
33994;DHT22;20673;48.980;8.138;2022-12-16T07:42:21;-6.00;99.90
33994;DHT22;20673;48.980;8.138;2022-12-16T07:45:06;-5.90;99.90
33994;DHT22;20673;48.980;8.138;2022-12-16T07:47:51;-5.70;99.90
33994;DHT22;20673;48.980;8.138;2022-12-16T07:50:35;-5.70;99.90
33994;DHT22;20673;48.980;8.138;2022-12-16T07:53:20;-5.70;99.90
33994;DHT22;20673;48.980;8.138;2022-12-16T07:56:05;-5.80;99.90
33994;DHT22;20673;48.980;8.138;2022-12-16T07:58:49;-5.70;99.90
33994;DHT22;20673;48.980;8.138;2022-12-16T08:01:34;-5.60;99.90
33994;DHT22;20673;48.980;8.138;2022-12-16T08:04:18;-5.50;99.90
33994;DHT22;20673;48.980;8.138;2022-12-16T08:07:02;-5.60;99.90
33994;DHT22;20673;48.980;8.138;2022-12-16T08:09:47;-5.50;99.90
33994;DHT22;20673;48.980;8.138;2022-12-16T08:12:31;-5.50;99.90
33994;DHT22;20673;48.980;8.138;2022-12-16T08:15:15;-5.40;99.90
33994;DHT22;20673;48.980;8.138;2022-12-16T08:17:59;-5.20;99.90
33994;DHT22;20673;48.980;8.138;2022-12-16T08:20:44;-5.10;99.90
33994;DHT22;20673;48.980;8.138;2022-12-16T08:23:28;-5.10;99.90
33994;DHT22;20673;48.980;8.138;2022-12-16T08:26:13;-5.10;99.90
33994;DHT22;20673;48.980;8.138;2022-12-16T08:28:44;-4.90;99.90
33994;DHT22;20673;48.980;8.138;2022-12-16T08:31:29;-4.90;99.90
33994;DHT22;20673;48.980;8.138;2022-12-16T08:34:13;-4.80;99.90
33994;DHT22;20673;48.980;8.138;2022-12-16T08:36:57;-4.70;99.90
33994;DHT22;20673;48.980;8.138;2022-12-16T08:39:41;-4.40;99.90
33994;DHT22;20673;48.980;8.138;2022-12-16T08:42:25;-4.10;99.90
33994;DHT22;20673;48.980;8.138;2022-12-16T08:45:09;-3.70;99.90
33994;DHT22;20673;48.980;8.138;2022-12-16T08:47:53;-3.30;99.90
33994;DHT22;20673;48.980;8.138;2022-12-16T08:50:37;-2.90;99.90
33994;DHT22;20673;48.980;8.138;2022-12-16T08:53:21;-2.60;99.90
33994;DHT22;20673;48.980;8.138;2022-12-16T08:56:05;-2.30;99.90
33994;DHT22;20673;48.980;8.138;2022-12-16T08:58:50;-2.00;99.90
33994;DHT22;20673;48.980;8.138;2022-12-16T09:01:34;-1.90;99.90
33994;DHT22;20673;48.980;8.138;2022-12-16T09:04:19;-1.40;99.90
33994;DHT22;20673;48.980;8.138;2022-12-16T09:07:03;-0.80;99.90
33994;DHT22;20673;48.980;8.138;2022-12-16T09:09:47;-0.70;99.90
33994;DHT22;20673;48.980;8.138;2022-12-16T09:12:31;-0.70;99.90
33994;DHT22;20673;48.980;8.138;2022-12-16T09:15:15;-0.40;99.90
33994;DHT22;20673;48.980;8.138;2022-12-16T09:17:59;0.00;99.90
33994;DHT22;20673;48.980;8.138;2022-12-16T09:20:43;0.10;99.90
33994;DHT22;20673;48.980;8.138;2022-12-16T09:23:27;0.20;99.90
33994;DHT22;20673;48.980;8.138;2022-12-16T09:26:11;0.30;99.90
33994;DHT22;20673;48.980;8.138;2022-12-16T09:28:55;0.40;99.90
33994;DHT22;20673;48.980;8.138;2022-12-16T09:31:39;0.50;99.90
33994;DHT22;20673;48.980;8.138;2022-12-16T09:34:23;0.80;99.90
33994;DHT22;20673;48.980;8.138;2022-12-16T09:37:07;1.10;99.90
33994;DHT22;20673;48.980;8.138;2022-12-16T09:39:52;1.30;99.90
33994;DHT22;20673;48.980;8.138;2022-12-16T09:51:31;2.60;99.90
33994;DHT22;20673;48.980;8.138;2022-12-16T09:54:17;2.30;99.90
33994;DHT22;20673;48.980;8.138;2022-12-16T09:57:04;2.40;99.90
33994;DHT22;20673;48.980;8.138;2022-12-16T09:59:54;2.50;99.90
33994;DHT22;20673;48.980;8.138;2022-12-16T10:02:40;3.10;99.90
33994;DHT22;20673;48.980;8.138;2022-12-16T10:05:29;3.40;99.90
33994;DHT22;20673;48.980;8.138;2022-12-16T10:08:21;2.90;99.90
33994;DHT22;20673;48.980;8.138;2022-12-16T10:11:12;3.20;99.90
33994;DHT22;20673;48.980;8.138;2022-12-16T10:17:02;3.20;99.90
33994;DHT22;20673;48.980;8.138;2022-12-16T10:22:49;3.80;99.90
33994;DHT22;20673;48.980;8.138;2022-12-16T10:25:51;3.70;99.90
33994;DHT22;20673;48.980;8.138;2022-12-16T10:28:44;3.30;99.90
33994;DHT22;20673;48.980;8.138;2022-12-16T10:31:31;3.60;99.90
33994;DHT22;20673;48.980;8.138;2022-12-16T10:34:17;3.90;99.90
33994;DHT22;20673;48.980;8.138;2022-12-16T10:37:03;4.20;99.90
33994;DHT22;20673;48.980;8.138;2022-12-16T10:39:58;4.30;99.90
33994;DHT22;20673;48.980;8.138;2022-12-16T10:42:49;4.40;99.90
33994;DHT22;20673;48.980;8.138;2022-12-16T10:45:44;4.30;99.90
33994;DHT22;20673;48.980;8.138;2022-12-16T10:48:27;4.40;99.90
33994;DHT22;20673;48.980;8.138;2022-12-16T10:51:14;4.90;99.90
33994;DHT22;20673;48.980;8.138;2022-12-16T11:00:15;4.20;99.90
33994;DHT22;20673;48.980;8.138;2022-12-16T11:03:18;4.00;99.90
33994;DHT22;20673;48.980;8.138;2022-12-16T11:06:07;3.90;99.90
33994;DHT22;20673;48.980;8.138;2022-12-16T11:08:53;3.90;99.90
33994;DHT22;20673;48.980;8.138;2022-12-16T11:11:38;3.90;99.90
33994;DHT22;20673;48.980;8.138;2022-12-16T11:17:23;4.50;99.90
33994;DHT22;20673;48.980;8.138;2022-12-16T11:20:16;4.70;99.90
33994;DHT22;20673;48.980;8.138;2022-12-16T11:23:22;5.50;99.90
33994;DHT22;20673;48.980;8.138;2022-12-16T11:32:00;5.60;99.90
33994;DHT22;20673;48.980;8.138;2022-12-16T11:34:52;5.00;99.90
33994;DHT22;20673;48.980;8.138;2022-12-16T11:37:35;5.00;99.90
33994;DHT22;20673;48.980;8.138;2022-12-16T11:40:21;4.70;99.90
33994;DHT22;20673;48.980;8.138;2022-12-16T11:43:07;4.50;99.90
33994;DHT22;20673;48.980;8.138;2022-12-16T11:45:54;4.70;99.90
33994;DHT22;20673;48.980;8.138;2022-12-16T11:48:44;4.60;99.90
33994;DHT22;20673;48.980;8.138;2022-12-16T11:51:37;4.90;99.90
33994;DHT22;20673;48.980;8.138;2022-12-16T11:54:28;4.80;99.90
33994;DHT22;20673;48.980;8.138;2022-12-16T11:57:15;5.00;99.90
33994;DHT22;20673;48.980;8.138;2022-12-16T12:00:05;5.10;99.90
33994;DHT22;20673;48.980;8.138;2022-12-16T12:05:44;5.30;99.90
33994;DHT22;20673;48.980;8.138;2022-12-16T12:11:44;5.40;99.90
33994;DHT22;20673;48.980;8.138;2022-12-16T12:14:59;5.20;99.90
33994;DHT22;20673;48.980;8.138;2022-12-16T12:20:43;5.70;99.90
33994;DHT22;20673;48.980;8.138;2022-12-16T12:24:18;5.10;99.90
33994;DHT22;20673;48.980;8.138;2022-12-16T12:26:37;5.50;99.90
33994;DHT22;20673;48.980;8.138;2022-12-16T12:32:22;5.20;99.90
33994;DHT22;20673;48.980;8.138;2022-12-16T12:35:16;4.90;99.90
33994;DHT22;20673;48.980;8.138;2022-12-16T12:38:00;5.40;99.90
33994;DHT22;20673;48.980;8.138;2022-12-16T12:47:01;6.10;99.90
33994;DHT22;20673;48.980;8.138;2022-12-16T12:49:56;6.30;99.90
33994;DHT22;20673;48.980;8.138;2022-12-16T12:52:52;5.50;99.90
33994;DHT22;20673;48.980;8.138;2022-12-16T12:58:50;4.90;99.90
33994;DHT22;20673;48.980;8.138;2022-12-16T13:01:39;5.50;99.90
33994;DHT22;20673;48.980;8.138;2022-12-16T13:04:25;5.30;99.90
33994;DHT22;20673;48.980;8.138;2022-12-16T13:07:12;5.70;99.90
33994;DHT22;20673;48.980;8.138;2022-12-16T13:16:03;5.90;99.90
33994;DHT22;20673;48.980;8.138;2022-12-16T13:25:30;5.00;99.90
33994;DHT22;20673;48.980;8.138;2022-12-16T13:28:21;5.60;99.90
33994;DHT22;20673;48.980;8.138;2022-12-16T13:31:22;5.90;99.90
33994;DHT22;20673;48.980;8.138;2022-12-16T13:37:04;6.40;99.90
33994;DHT22;20673;48.980;8.138;2022-12-16T13:42:56;5.80;99.90
33994;DHT22;20673;48.980;8.138;2022-12-16T13:45:42;5.50;99.90
33994;DHT22;20673;48.980;8.138;2022-12-16T13:54:32;5.80;99.90
33994;DHT22;20673;48.980;8.138;2022-12-16T13:57:22;6.00;99.90
33994;DHT22;20673;48.980;8.138;2022-12-16T14:00:16;6.20;99.90
33994;DHT22;20673;48.980;8.138;2022-12-16T14:02:59;6.20;99.90
33994;DHT22;20673;48.980;8.138;2022-12-16T14:05:46;6.10;99.90
33994;DHT22;20673;48.980;8.138;2022-12-16T14:08:32;5.40;99.90
33994;DHT22;20673;48.980;8.138;2022-12-16T14:11:21;4.40;99.90
33994;DHT22;20673;48.980;8.138;2022-12-16T14:14:08;3.60;99.90
33994;DHT22;20673;48.980;8.138;2022-12-16T14:17:02;3.00;99.90
33994;DHT22;20673;48.980;8.138;2022-12-16T14:26:03;2.20;99.90
33994;DHT22;20673;48.980;8.138;2022-12-16T14:28:49;2.00;99.90
33994;DHT22;20673;48.980;8.138;2022-12-16T14:31:36;1.80;99.90
33994;DHT22;20673;48.980;8.138;2022-12-16T14:37:14;1.30;99.90
33994;DHT22;20673;48.980;8.138;2022-12-16T14:40:00;1.10;99.90
33994;DHT22;20673;48.980;8.138;2022-12-16T14:42:46;1.00;99.90
33994;DHT22;20673;48.980;8.138;2022-12-16T14:45:36;1.00;99.90
33994;DHT22;20673;48.980;8.138;2022-12-16T14:51:31;1.00;99.90
33994;DHT22;20673;48.980;8.138;2022-12-16T14:57:14;1.00;99.90
33994;DHT22;20673;48.980;8.138;2022-12-16T15:02:54;1.20;99.90
33994;DHT22;20673;48.980;8.138;2022-12-16T15:05:44;1.20;99.90
33994;DHT22;20673;48.980;8.138;2022-12-16T15:08:30;1.00;99.90
33994;DHT22;20673;48.980;8.138;2022-12-16T15:11:17;0.80;99.90
33994;DHT22;20673;48.980;8.138;2022-12-16T15:14:03;0.60;99.90
33994;DHT22;20673;48.980;8.138;2022-12-16T15:16:49;0.40;99.90
33994;DHT22;20673;48.980;8.138;2022-12-16T15:19:42;0.20;99.90
33994;DHT22;20673;48.980;8.138;2022-12-16T15:22:28;0.10;99.90
33994;DHT22;20673;48.980;8.138;2022-12-16T15:25:23;-0.10;99.90
33994;DHT22;20673;48.980;8.138;2022-12-16T15:31:25;-0.30;99.90
33994;DHT22;20673;48.980;8.138;2022-12-16T15:34:21;-0.40;99.90
33994;DHT22;20673;48.980;8.138;2022-12-16T15:40:22;-0.70;99.90
33994;DHT22;20673;48.980;8.138;2022-12-16T15:46:21;-0.80;99.90
33994;DHT22;20673;48.980;8.138;2022-12-16T15:55:21;-1.10;99.90
33994;DHT22;20673;48.980;8.138;2022-12-16T15:58:32;-1.10;99.90
33994;DHT22;20673;48.980;8.138;2022-12-16T16:01:24;-1.20;99.90
33994;DHT22;20673;48.980;8.138;2022-12-16T16:07:07;-1.20;99.90
33994;DHT22;20673;48.980;8.138;2022-12-16T16:10:13;-1.20;99.90
33994;DHT22;20673;48.980;8.138;2022-12-16T16:13:00;-1.20;99.90
33994;DHT22;20673;48.980;8.138;2022-12-16T16:15:45;-1.10;99.90
33994;DHT22;20673;48.980;8.138;2022-12-16T16:18:30;-1.10;99.90
33994;DHT22;20673;48.980;8.138;2022-12-16T16:21:14;-1.10;99.90
33994;DHT22;20673;48.980;8.138;2022-12-16T16:23:59;-1.00;99.90
33994;DHT22;20673;48.980;8.138;2022-12-16T16:26:43;-1.00;99.90
33994;DHT22;20673;48.980;8.138;2022-12-16T16:29:28;-0.90;99.90
33994;DHT22;20673;48.980;8.138;2022-12-16T16:32:12;-0.90;99.90
33994;DHT22;20673;48.980;8.138;2022-12-16T16:34:56;-0.90;99.90
33994;DHT22;20673;48.980;8.138;2022-12-16T16:37:40;-0.80;99.90
33994;DHT22;20673;48.980;8.138;2022-12-16T16:40:27;-0.80;99.90
33994;DHT22;20673;48.980;8.138;2022-12-16T16:43:12;-0.80;99.90
33994;DHT22;20673;48.980;8.138;2022-12-16T16:45:56;-0.80;99.90
33994;DHT22;20673;48.980;8.138;2022-12-16T16:48:41;-0.80;99.90
33994;DHT22;20673;48.980;8.138;2022-12-16T16:51:25;-0.70;99.90
33994;DHT22;20673;48.980;8.138;2022-12-16T16:54:10;-0.70;99.90
33994;DHT22;20673;48.980;8.138;2022-12-16T16:56:55;-0.70;99.90
33994;DHT22;20673;48.980;8.138;2022-12-16T16:59:39;-0.70;99.90
33994;DHT22;20673;48.980;8.138;2022-12-16T17:02:25;-0.70;99.90
33994;DHT22;20673;48.980;8.138;2022-12-16T17:05:09;-0.70;99.90
33994;DHT22;20673;48.980;8.138;2022-12-16T17:07:54;-0.80;99.90
33994;DHT22;20673;48.980;8.138;2022-12-16T17:10:38;-0.80;99.90
33994;DHT22;20673;48.980;8.138;2022-12-16T17:13:22;-0.70;99.90
33994;DHT22;20673;48.980;8.138;2022-12-16T17:16:08;-0.80;99.90
33994;DHT22;20673;48.980;8.138;2022-12-16T17:18:54;-0.80;99.90
33994;DHT22;20673;48.980;8.138;2022-12-16T17:21:38;-0.80;99.90
33994;DHT22;20673;48.980;8.138;2022-12-16T17:24:23;-0.80;99.90
33994;DHT22;20673;48.980;8.138;2022-12-16T17:30:06;-0.80;99.90
33994;DHT22;20673;48.980;8.138;2022-12-16T17:32:52;-0.80;99.90
33994;DHT22;20673;48.980;8.138;2022-12-16T17:35:36;-0.80;99.90
33994;DHT22;20673;48.980;8.138;2022-12-16T17:38:20;-0.80;99.90
33994;DHT22;20673;48.980;8.138;2022-12-16T17:41:04;-0.90;99.90
33994;DHT22;20673;48.980;8.138;2022-12-16T17:43:50;-0.80;99.90
33994;DHT22;20673;48.980;8.138;2022-12-16T17:46:35;-0.90;99.90
33994;DHT22;20673;48.980;8.138;2022-12-16T17:49:19;-0.90;99.90
33994;DHT22;20673;48.980;8.138;2022-12-16T17:52:03;-0.80;99.90
33994;DHT22;20673;48.980;8.138;2022-12-16T17:54:47;-0.90;99.90
33994;DHT22;20673;48.980;8.138;2022-12-16T17:57:32;-1.00;99.90
33994;DHT22;20673;48.980;8.138;2022-12-16T18:00:16;-1.00;99.90
33994;DHT22;20673;48.980;8.138;2022-12-16T18:03:00;-1.00;99.90
33994;DHT22;20673;48.980;8.138;2022-12-16T18:05:45;-1.10;99.90
33994;DHT22;20673;48.980;8.138;2022-12-16T18:08:30;-1.20;99.90
33994;DHT22;20673;48.980;8.138;2022-12-16T18:11:15;-1.30;99.90
33994;DHT22;20673;48.980;8.138;2022-12-16T18:13:59;-1.20;99.90
33994;DHT22;20673;48.980;8.138;2022-12-16T18:16:43;-1.30;99.90
33994;DHT22;20673;48.980;8.138;2022-12-16T18:19:27;-1.30;99.90
33994;DHT22;20673;48.980;8.138;2022-12-16T18:22:11;-1.30;99.90
33994;DHT22;20673;48.980;8.138;2022-12-16T18:24:57;-1.40;99.90
33994;DHT22;20673;48.980;8.138;2022-12-16T18:27:41;-1.40;99.90
33994;DHT22;20673;48.980;8.138;2022-12-16T18:30:26;-1.40;99.90
33994;DHT22;20673;48.980;8.138;2022-12-16T18:33:10;-1.60;99.90
33994;DHT22;20673;48.980;8.138;2022-12-16T18:35:54;-1.70;99.90
33994;DHT22;20673;48.980;8.138;2022-12-16T18:38:38;-1.60;99.90
33994;DHT22;20673;48.980;8.138;2022-12-16T18:41:22;-1.60;99.90
33994;DHT22;20673;48.980;8.138;2022-12-16T18:44:08;-1.70;99.90
33994;DHT22;20673;48.980;8.138;2022-12-16T18:46:54;-1.80;99.90
33994;DHT22;20673;48.980;8.138;2022-12-16T18:49:39;-2.00;99.90
33994;DHT22;20673;48.980;8.138;2022-12-16T18:52:23;-2.00;99.90
33994;DHT22;20673;48.980;8.138;2022-12-16T18:55:08;-2.10;99.90
33994;DHT22;20673;48.980;8.138;2022-12-16T18:57:52;-2.30;99.90
33994;DHT22;20673;48.980;8.138;2022-12-16T19:00:37;-2.30;99.90
33994;DHT22;20673;48.980;8.138;2022-12-16T19:03:21;-2.40;99.90
33994;DHT22;20673;48.980;8.138;2022-12-16T19:06:06;-2.50;99.90
33994;DHT22;20673;48.980;8.138;2022-12-16T19:08:50;-2.50;99.90
33994;DHT22;20673;48.980;8.138;2022-12-16T19:11:35;-2.40;99.90
33994;DHT22;20673;48.980;8.138;2022-12-16T19:14:19;-2.40;99.90
33994;DHT22;20673;48.980;8.138;2022-12-16T19:17:03;-2.50;99.90
33994;DHT22;20673;48.980;8.138;2022-12-16T19:19:47;-2.70;99.90
33994;DHT22;20673;48.980;8.138;2022-12-16T19:22:31;-2.90;99.90
33994;DHT22;20673;48.980;8.138;2022-12-16T19:25:16;-3.00;99.90
33994;DHT22;20673;48.980;8.138;2022-12-16T19:28:00;-3.10;99.90
33994;DHT22;20673;48.980;8.138;2022-12-16T19:30:54;-3.00;99.90
33994;DHT22;20673;48.980;8.138;2022-12-16T19:33:38;-3.00;99.90
33994;DHT22;20673;48.980;8.138;2022-12-16T19:36:22;-3.10;99.90
33994;DHT22;20673;48.980;8.138;2022-12-16T19:39:02;-3.20;99.90